Time;durP1;ratioP1;P1;durP2;ratioP2;P2;SDS_P1;SDS_P2;PMS_P1;PMS_P2;Temp;Humidity;BMP_temperature;BMP_pressure;BME280_temperature;BME280_humidity;BME280_pressure;Samples;Min_cycle;Max_cycle;Signal;HPM_P1;HPM_P2
2022/04/14 00:00:02;;;;;;;35.47;22.73;;;15.00;99.90;;;15.85;100.00;98269.25;4976898;28;20459;-74
2022/04/14 00:02:31;;;;;;;37.33;23.17;;;15.00;99.90;;;15.81;100.00;98275.97;4979017;28;20528;-75
2022/04/14 00:05:00;;;;;;;41.03;23.63;;;15.00;99.90;;;15.82;100.00;98274.94;4981190;28;20468;-74
2022/04/14 00:07:30;;;;;;;39.93;23.80;;;15.00;99.90;;;15.79;100.00;98275.38;4978188;28;20475;-74
2022/04/14 00:09:58;;;;;;;33.40;22.10;;;15.00;99.90;;;15.81;100.00;98271.50;4976864;28;20591;-74
2022/04/14 00:12:30;;;;;;;43.73;21.80;;;15.00;99.90;;;15.81;100.00;98270.69;4980807;28;20503;-74
2022/04/14 00:15:01;;;;;;;34.60;22.30;;;15.00;99.90;;;15.80;100.00;98275.16;4975872;28;20488;-75
2022/04/14 00:17:32;;;;;;;30.70;21.20;;;15.00;99.90;;;15.77;100.00;98280.03;4978599;28;20527;-75
2022/04/14 00:20:02;;;;;;;28.03;20.43;;;15.00;99.90;;;15.77;100.00;98285.31;4979875;28;20530;-75
2022/04/14 00:22:32;;;;;;;37.27;21.00;;;14.90;99.90;;;15.77;100.00;98288.75;4978084;28;20476;-74
2022/04/14 00:25:02;;;;;;;32.20;21.90;;;15.00;99.90;;;15.80;100.00;98279.59;4977522;28;20457;-75
2022/04/14 00:27:33;;;;;;;35.60;21.20;;;15.00;99.90;;;15.76;100.00;98279.22;4977851;28;20949;-74
2022/04/14 00:30:03;;;;;;;35.57;21.10;;;15.00;99.90;;;15.80;100.00;98277.78;4977118;28;20490;-75
2022/04/14 00:32:33;;;;;;;31.87;19.20;;;15.00;99.90;;;15.83;100.00;98282.63;4977276;28;20464;-74
2022/04/14 00:35:02;;;;;;;34.90;20.73;;;15.00;99.90;;;15.80;100.00;98279.59;4978056;28;20527;-75
2022/04/14 00:37:32;;;;;;;27.80;21.20;;;15.00;99.90;;;15.80;100.00;98283.06;4983345;28;20549;-75
2022/04/14 00:40:02;;;;;;;35.27;20.37;;;15.00;99.90;;;15.80;100.00;98284.88;4985342;28;20460;-75
2022/04/14 00:42:33;;;;;;;31.10;21.17;;;15.00;99.90;;;15.79;100.00;98283.28;4980395;28;20464;-75
2022/04/14 00:45:02;;;;;;;32.17;21.17;;;15.00;99.90;;;15.80;100.00;98284.88;4981297;28;20467;-74
2022/04/14 00:47:32;;;;;;;35.10;21.27;;;15.00;99.90;;;15.78;100.00;98277.19;4982013;28;20462;-75
2022/04/14 00:50:03;;;;;;;40.13;22.30;;;15.00;99.90;;;15.78;100.00;98279.03;4982807;28;20448;-75
2022/04/14 00:52:33;;;;;;;38.10;21.97;;;14.90;99.90;;;15.76;100.00;98283.72;4983957;28;20882;-75
2022/04/14 00:55:02;;;;;;;38.20;23.47;;;15.00;99.90;;;15.75;100.00;98282.09;4984154;28;20538;-75
2022/04/14 00:57:33;;;;;;;34.63;22.77;;;15.00;99.90;;;15.70;100.00;98279.28;4985500;28;20444;-75
2022/04/14 01:00:04;;;;;;;32.73;21.70;;;14.90;99.90;;;15.73;100.00;98289.41;4981016;28;20437;-75
2022/04/14 01:02:34;;;;;;;33.43;22.63;;;15.00;99.90;;;15.71;100.00;98283.53;4981587;28;20825;-75
2022/04/14 01:05:05;;;;;;;38.00;22.13;;;15.00;99.90;;;15.65;100.00;98287.84;4982616;28;20503;-75
2022/04/14 01:07:35;;;;;;;37.17;23.70;;;14.80;99.90;;;15.64;100.00;98288.06;4981997;28;20502;-75
2022/04/14 01:10:06;;;;;;;43.10;23.53;;;14.80;99.90;;;15.61;100.00;98286.66;4980699;28;20838;-74
2022/04/14 01:12:36;;;;;;;37.37;23.50;;;14.80;99.90;;;15.60;100.00;98285.03;4982225;28;20522;-75
2022/04/14 01:15:13;;;;;;;38.10;24.97;;;14.90;99.90;;;15.56;100.00;98289.91;4979516;28;20513;-75
2022/04/14 01:17:44;;;;;;;42.87;25.10;;;14.80;99.90;;;15.50;100.00;98288.13;4981875;28;20460;-74
2022/04/14 01:20:14;;;;;;;40.90;24.63;;;14.70;99.90;;;15.50;100.00;98288.13;4980698;28;20939;-75
2022/04/14 01:22:55;;;;;;;39.33;24.10;;;14.70;99.90;;;15.51;100.00;98297.66;4980946;28;20465;-75
2022/04/14 01:25:27;;;;;;;38.90;24.30;;;14.70;99.90;;;15.51;100.00;98295.03;4982293;28;20464;-75
2022/04/14 01:27:58;;;;;;;40.27;25.20;;;14.80;99.90;;;15.50;100.00;98300.50;4980516;28;20467;-74
2022/04/14 01:30:28;;;;;;;38.70;24.37;;;14.70;99.90;;;15.48;100.00;98299.91;4979318;28;20523;-75
2022/04/14 01:32:57;;;;;;;40.73;23.63;;;14.70;99.90;;;15.43;100.00;98310.25;4982450;28;20475;-74
2022/04/14 01:35:28;;;;;;;39.67;25.13;;;14.70;99.90;;;15.42;100.00;98308.63;4980843;28;20547;-75
2022/04/14 01:37:59;;;;;;;41.90;27.00;;;14.60;99.90;;;15.40;100.00;98319.38;4980521;28;20468;-74
2022/04/14 01:40:31;;;;;;;37.90;24.67;;;14.60;99.90;;;15.34;100.00;98314.16;4983851;28;20494;-74
2022/04/14 01:43:02;;;;;;;42.53;26.17;;;14.50;99.90;;;15.31;100.00;98319.81;4978553;28;20464;-74
2022/04/14 01:45:33;;;;;;;43.73;26.13;;;14.50;99.90;;;15.31;100.00;98318.00;4978397;28;20486;-75
2022/04/14 01:48:02;;;;;;;45.90;26.70;;;14.50;99.90;;;15.32;100.00;98330.16;4979942;28;20467;-74
2022/04/14 01:50:34;;;;;;;48.97;25.70;;;14.60;99.90;;;15.31;100.00;98330.34;4980371;28;20962;-75
2022/04/14 01:53:04;;;;;;;44.47;26.27;;;14.50;99.90;;;15.25;100.00;98326.75;4980997;28;20440;-75
2022/04/14 01:55:35;;;;;;;38.73;25.40;;;14.40;99.90;;;15.24;100.00;98327.75;4979339;28;21147;-75
2022/04/14 01:58:04;;;;;;;40.17;23.90;;;14.40;99.90;;;15.20;100.00;98329.22;4981694;28;20436;-75
2022/04/14 02:00:34;;;;;;;47.73;26.47;;;14.40;99.90;;;15.20;100.00;98331.84;4982387;28;20578;-75
2022/04/14 02:03:05;;;;;;;42.97;26.50;;;14.40;99.90;;;15.17;100.00;98332.25;4982609;28;20469;-75
2022/04/14 02:05:35;;;;;;;45.20;27.13;;;14.30;99.90;;;15.22;100.00;98335.06;4982442;28;20796;-75
2022/04/14 02:08:05;;;;;;;38.93;25.30;;;14.40;99.90;;;15.22;100.00;98332.44;4981027;28;20460;-74
2022/04/14 02:10:37;;;;;;;41.57;26.97;;;14.40;99.90;;;15.22;100.00;98324.53;4981668;28;20829;-75
2022/04/14 02:13:08;;;;;;;38.73;25.50;;;14.40;99.90;;;15.22;100.00;98321.09;4980312;28;20460;-75
2022/04/14 02:15:38;;;;;;;42.77;25.10;;;14.30;99.90;;;15.18;100.00;98325.97;4981150;28;21046;-75
2022/04/14 02:18:07;;;;;;;43.43;26.13;;;14.30;99.90;;;15.15;100.00;98334.28;4981185;28;20459;-75
2022/04/14 02:20:38;;;;;;;37.40;24.27;;;14.40;99.90;;;15.13;100.00;98330.25;4977897;28;20468;-74
2022/04/14 02:23:08;;;;;;;35.97;23.10;;;14.30;99.90;;;15.01;100.00;98328.28;4978237;28;20492;-74
2022/04/14 02:25:40;;;;;;;33.33;20.13;;;14.30;99.90;;;14.96;100.00;98332.56;4979988;28;20460;-74
2022/04/14 02:28:10;;;;;;;33.40;20.70;;;14.20;99.90;;;14.93;100.00;98336.38;4979993;28;20478;-75
2022/04/14 02:30:40;;;;;;;34.87;19.00;;;14.10;99.90;;;14.95;100.00;98341.47;4977835;28;20487;-74
2022/04/14 02:33:09;;;;;;;32.03;18.53;;;14.20;99.90;;;14.92;100.00;98336.63;4978332;28;20812;-75
2022/04/14 02:35:39;;;;;;;26.00;17.93;;;14.10;99.90;;;14.91;100.00;98337.63;4978762;28;20910;-75
2022/04/14 02:38:09;;;;;;;28.10;18.83;;;14.10;99.90;;;14.86;100.00;98330.34;4978437;28;20464;-74
2022/04/14 02:40:39;;;;;;;28.77;15.80;;;14.10;99.90;;;14.85;100.00;98333.19;4980480;28;20901;-74
2022/04/14 02:43:08;;;;;;;27.97;15.30;;;14.10;99.90;;;14.82;100.00;98333.59;4977883;28;20468;-74
2022/04/14 02:45:37;;;;;;;26.27;15.50;;;14.00;99.90;;;14.80;100.00;98330.34;4979513;28;20464;-75
2022/04/14 02:48:09;;;;;;;24.60;13.17;;;13.90;99.90;;;14.78;100.00;98337.66;4978735;28;20468;-74
2022/04/14 02:50:43;;;;;;;26.70;15.23;;;14.00;99.90;;;14.75;100.00;98336.22;4978077;28;20468;-74
2022/04/14 02:53:12;;;;;;;19.73;13.07;;;14.00;99.90;;;14.69;100.00;98329.16;4979823;28;20576;-75
2022/04/14 02:55:44;;;;;;;17.90;12.20;;;14.00;99.90;;;14.67;100.00;98335.66;4979091;28;21198;-74
2022/04/14 02:58:14;;;;;;;21.70;11.97;;;13.90;99.90;;;14.66;100.00;98339.28;4979062;28;21279;-75
2022/04/14 03:00:43;;;;;;;21.97;11.93;;;13.90;99.90;;;14.61;100.00;98339.94;4979801;28;20490;-74
2022/04/14 03:03:14;;;;;;;22.10;12.37;;;13.80;99.90;;;14.62;100.00;98338.91;4978705;28;20954;-74
2022/04/14 03:05:44;;;;;;;26.03;11.30;;;13.80;99.90;;;14.64;100.00;98334.25;4977649;28;20464;-74
2022/04/14 03:08:13;;;;;;;23.13;10.87;;;13.80;99.90;;;14.64;100.00;98341.34;4975406;28;21011;-74
2022/04/14 03:10:43;;;;;;;25.53;12.80;;;13.80;99.90;;;14.63;100.00;98339.72;4978875;28;20491;-82
2022/04/14 03:13:13;;;;;;;16.50;10.10;;;13.80;99.90;;;14.59;100.00;98340.13;4977547;28;20562;-74
2022/04/14 03:15:42;;;;;;;18.73;9.70;;;13.70;99.90;;;14.53;100.00;98346.22;4978902;28;20983;-74
2022/04/14 03:18:12;;;;;;;12.40;8.20;;;13.60;99.90;;;14.53;100.00;98350.66;4977957;28;20470;-74
2022/04/14 03:20:43;;;;;;;15.93;8.73;;;13.60;99.90;;;14.53;100.00;98340.94;4976768;28;21496;-75
2022/04/14 03:23:13;;;;;;;19.67;10.57;;;13.70;99.90;;;14.44;100.00;98344.78;4977284;28;20471;-74
2022/04/14 03:25:42;;;;;;;16.40;8.97;;;13.50;99.90;;;14.45;100.00;98342.97;4976662;28;20471;-75
2022/04/14 03:28:12;;;;;;;15.20;8.50;;;13.60;99.90;;;14.44;100.00;98343.97;4978150;28;20476;-84
2022/04/14 03:30:42;;;;;;;15.33;9.07;;;13.50;99.90;;;14.42;100.00;98343.38;4980058;28;20472;-75
2022/04/14 03:33:12;;;;;;;11.80;7.10;;;13.50;99.90;;;14.42;100.00;98340.75;4979566;28;20491;-75
2022/04/14 03:35:42;;;;;;;12.97;7.90;;;13.50;99.90;;;14.40;100.00;98346.22;4981102;28;20453;-74
2022/04/14 03:38:12;;;;;;;10.73;7.43;;;13.50;99.90;;;14.37;100.00;98346.63;4981299;28;20444;-75
2022/04/14 03:41:05;;;;;;;20.73;7.20;;;13.40;99.90;;;14.33;100.00;98347.22;4980606;28;20460;-75
2022/04/14 03:43:34;;;;;;;16.30;6.23;;;13.40;99.90;;;14.36;100.00;98350.28;4981197;28;20435;-74
2022/04/14 03:46:05;;;;;;;10.07;5.93;;;13.40;99.90;;;14.35;100.00;98343.38;4981401;28;20489;-74
2022/04/14 03:48:35;;;;;;;12.77;6.40;;;13.40;99.90;;;14.33;100.00;98342.75;4979438;28;21020;-75
2022/04/14 03:51:05;;;;;;;10.13;5.63;;;13.40;99.90;;;14.31;100.00;98349.22;4980682;28;20444;-75
2022/04/14 03:53:35;;;;;;;9.87;5.63;;;13.30;99.90;;;14.27;100.00;98346.19;4980080;28;20958;-74
2022/04/14 03:56:07;;;;;;;11.00;6.20;;;13.40;99.90;;;14.21;100.00;98352.25;4980051;28;20816;-73
2022/04/14 03:58:37;;;;;;;7.50;5.07;;;13.30;99.90;;;14.22;100.00;98355.72;4978495;28;20465;-75
2022/04/14 04:01:07;;;;;;;11.67;5.97;;;13.30;99.90;;;14.20;100.00;98348.00;4977289;28;20480;-75
2022/04/14 04:03:36;;;;;;;9.20;5.20;;;13.30;99.90;;;14.16;100.00;98346.00;4978921;28;20464;-76
2022/04/14 04:06:07;;;;;;;85.67;45.43;;;13.20;99.90;;;14.15;100.00;98354.91;4976538;28;20468;-75
2022/04/14 04:08:37;;;;;;;8.10;4.90;;;13.30;99.90;;;14.10;100.00;98355.50;4975380;28;20470;-75
2022/04/14 04:11:09;;;;;;;6.57;4.00;;;13.30;99.90;;;14.05;100.00;98357.94;4982093;28;20466;-75
2022/04/14 04:13:39;;;;;;;6.77;4.43;;;13.10;99.90;;;14.04;100.00;98358.94;4982448;28;20844;-76
2022/04/14 04:16:08;;;;;;;11.27;4.70;;;13.10;99.90;;;14.03;100.00;98352.84;4981020;28;20470;-76
2022/04/14 04:18:38;;;;;;;8.17;4.67;;;13.10;99.90;;;14.01;100.00;98349.63;4981564;28;20459;-76
2022/04/14 04:21:08;;;;;;;8.70;5.17;;;13.10;99.90;;;14.00;100.00;98362.97;4983137;28;20863;-76
2022/04/14 04:23:38;;;;;;;6.80;4.57;;;13.00;99.90;;;14.01;100.00;98360.16;4982381;28;21121;-76
2022/04/14 04:26:09;;;;;;;7.15;4.40;;;13.00;99.90;;;14.01;100.00;98368.03;4982940;28;20479;-76
2022/04/14 04:28:39;;;;;;;10.63;4.40;;;13.00;99.90;;;14.01;100.00;98356.72;4985283;28;20692;-76
2022/04/14 04:31:13;;;;;;;9.60;5.10;;;13.10;99.90;;;14.03;100.00;98360.75;4986099;28;21173;-76
2022/04/14 04:33:44;;;;;;;7.10;4.60;;;13.00;99.90;;;14.03;100.00;98365.19;4985789;28;20531;-76
2022/04/14 04:36:13;;;;;;;9.90;4.90;;;13.10;99.90;;;14.05;100.00;98363.19;4985946;28;20471;-76
2022/04/14 04:38:43;;;;;;;7.50;5.00;;;13.10;99.90;;;14.07;100.00;98376.94;4984156;28;20467;-76
2022/04/14 04:41:14;;;;;;;9.50;4.80;;;13.20;99.90;;;14.07;100.00;98374.31;4985615;28;20444;-76
2022/04/14 04:43:44;;;;;;;7.87;4.23;;;13.10;99.90;;;14.07;100.00;98372.50;4983453;28;20480;-76
2022/04/14 04:46:15;;;;;;;8.27;4.30;;;13.20;99.90;;;14.06;100.00;98373.50;4984795;28;20503;-76
2022/04/14 04:48:46;;;;;;;11.43;4.37;;;13.20;99.90;;;14.08;100.00;98374.13;4984251;28;20452;-76
2022/04/14 04:51:16;;;;;;;9.03;4.27;;;13.20;99.90;;;14.09;100.00;98380.19;4983934;28;20873;-76
2022/04/14 04:53:46;;;;;;;18.90;5.00;;;13.10;99.90;;;14.03;100.00;98375.72;4985698;28;20453;-76
2022/04/14 04:56:18;;;;;;;13.27;5.47;;;13.20;99.90;;;13.99;100.00;98379.75;4985553;28;20463;-76
2022/04/14 04:58:48;;;;;;;17.50;4.73;;;13.20;99.90;;;13.99;100.00;98385.81;4985945;28;20480;-76
2022/04/14 05:01:19;;;;;;;6.57;3.63;;;13.10;99.90;;;13.98;100.00;98388.66;4985758;28;20547;-76
2022/04/14 05:03:49;;;;;;;5.60;3.23;;;13.20;99.90;;;13.96;100.00;98388.03;4985321;28;20441;-77
2022/04/14 05:06:19;;;;;;;5.37;3.43;;;13.20;99.90;;;13.95;100.00;98395.13;4984417;28;20444;-76
2022/04/14 05:08:49;;;;;;;5.73;3.10;;;13.10;99.90;;;13.95;100.00;98394.34;4984516;28;20457;-76
2022/04/14 05:11:20;;;;;;;7.93;3.73;;;13.00;99.90;;;13.94;100.00;98388.25;4986068;28;20525;-76
2022/04/14 05:13:50;;;;;;;7.37;3.13;;;13.10;99.90;;;13.95;100.00;98383.81;4983106;28;20518;-76
2022/04/14 05:16:20;;;;;;;8.73;3.40;;;13.10;99.90;;;13.96;100.00;98390.66;4984229;28;20460;-76
2022/04/14 05:18:49;;;;;;;6.30;3.77;;;13.10;99.90;;;13.96;100.00;98385.41;4982179;28;21015;-76
2022/04/14 05:21:18;;;;;;;8.93;4.67;;;13.00;99.90;;;13.97;100.00;98387.03;4983890;28;20518;-76
2022/04/14 05:23:49;;;;;;;8.53;4.20;;;12.90;99.90;;;13.96;100.00;98390.66;4981154;28;20823;-76
2022/04/14 05:26:20;;;;;;;6.93;4.70;;;13.10;99.90;;;13.95;100.00;98389.06;4980795;28;21052;-76
2022/04/14 05:28:50;;;;;;;11.70;4.00;;;13.00;99.90;;;13.96;100.00;98403.81;4981914;28;20480;-76
2022/04/14 05:31:21;;;;;;;8.50;3.63;;;13.10;99.90;;;13.95;100.00;98399.59;4980771;28;20549;-76
2022/04/14 05:33:52;;;;;;;4.83;3.57;;;13.00;99.90;;;13.96;100.00;98406.44;4982734;28;20445;-77
2022/04/14 05:36:22;;;;;;;6.03;4.27;;;13.00;99.90;;;13.99;100.00;98400.78;4982284;28;20939;-77
2022/04/14 05:38:51;;;;;;;9.80;4.60;;;13.10;99.90;;;14.01;100.00;98398.78;4980984;28;20498;-76
2022/04/14 05:41:23;;;;;;;7.40;4.80;;;13.10;99.90;;;14.03;100.00;98392.31;4983720;28;20460;-76
2022/04/14 05:43:55;;;;;;;14.20;6.13;;;13.10;99.90;;;14.03;100.00;98402.81;4984519;28;20475;-76
2022/04/14 05:46:24;;;;;;;9.40;6.17;;;13.10;99.90;;;14.08;100.00;98399.59;4984033;28;20499;-76
2022/04/14 05:48:56;;;;;;;12.90;6.20;;;13.20;99.90;;;14.11;100.00;98407.91;4983868;28;20488;-76
2022/04/14 05:51:26;;;;;;;10.80;6.00;;;13.20;99.90;;;14.15;100.00;98404.88;4984463;28;20932;-76
2022/04/14 05:53:56;;;;;;;8.90;5.80;;;13.20;99.90;;;14.18;100.00;98407.91;4981418;28;20461;-76
2022/04/14 05:56:27;;;;;;;11.03;5.93;;;13.30;99.90;;;14.20;100.00;98405.88;4980810;28;20959;-76
2022/04/14 05:58:56;;;;;;;14.23;6.40;;;13.40;99.90;;;14.20;100.00;98419.03;4981057;28;20518;-76
2022/04/14 06:01:27;;;;;;;10.40;6.63;;;13.40;99.90;;;14.18;100.00;98413.16;4984420;28;20854;-76
2022/04/14 06:03:57;;;;;;;10.97;6.40;;;13.40;99.90;;;14.23;100.00;98410.72;4982703;28;20479;-76
2022/04/14 06:06:27;;;;;;;17.70;7.60;;;13.40;99.90;;;14.24;100.00;98409.72;4982274;28;20455;-76
2022/04/14 06:08:58;;;;;;;12.53;6.67;;;13.30;99.90;;;14.23;100.00;98416.00;4982851;28;20444;-76
2022/04/14 06:11:30;;;;;;;10.73;6.83;;;13.40;99.90;;;14.28;100.00;98420.66;4985035;28;21743;-76
2022/04/14 06:13:59;;;;;;;8.53;5.57;;;13.40;99.90;;;14.30;100.00;98414.19;4982268;28;20496;-76
2022/04/14 06:16:28;;;;;;;12.03;5.33;;;13.40;99.90;;;14.35;100.00;98424.13;4984008;28;20455;-76
2022/04/14 06:18:57;;;;;;;12.70;7.53;;;13.40;99.90;;;14.40;100.00;98419.91;4982830;28;20519;-76
2022/04/14 06:21:27;;;;;;;12.43;7.13;;;13.70;99.90;;;14.43;100.00;98419.50;4982766;28;20931;-76
2022/04/14 06:23:58;;;;;;;18.43;6.13;;;13.70;99.90;;;14.45;100.00;98417.47;4983241;28;20444;-76
2022/04/14 06:26:36;;;;;;;12.40;5.70;;;13.60;99.90;;;14.49;100.00;98418.69;4984797;28;20530;-76
2022/04/14 06:29:05;;;;;;;10.30;5.83;;;13.70;99.90;;;14.52;100.00;98420.91;4983150;28;21049;-76
2022/04/14 06:31:37;;;;;;;9.80;6.00;;;13.70;99.90;;;14.56;100.00;98422.13;4983180;28;20440;-76
2022/04/14 06:34:07;;;;;;;8.77;5.70;;;13.80;99.90;;;14.57;100.00;98421.13;4984369;28;20528;-76
2022/04/14 06:36:37;;;;;;;14.23;5.07;;;13.70;99.90;;;14.63;100.00;98429.19;4981937;28;20452;-76
2022/04/14 06:39:12;;;;;;;11.40;5.30;;;13.80;99.90;;;14.65;100.00;98430.59;4981788;28;20572;-77
2022/04/14 06:41:44;;;;;;;8.33;5.57;;;13.80;99.90;;;14.65;100.00;98429.81;4982716;28;20460;-76
2022/04/14 06:44:13;;;;;;;11.00;4.60;;;13.90;99.90;;;14.69;100.00;98438.91;4982349;28;20547;-77
2022/04/14 06:46:43;;;;;;;11.37;5.90;;;13.80;99.90;;;14.73;100.00;98435.69;4983446;28;20456;-76
2022/04/14 06:49:13;;;;;;;7.27;5.30;;;13.90;99.90;;;14.77;100.00;98433.44;4983417;28;20460;-76
2022/04/14 06:51:42;;;;;;;7.97;5.07;;;14.00;99.90;;;14.82;100.00;98433.66;4982418;28;20514;-76
2022/04/14 06:54:11;;;;;;;11.07;5.57;;;14.00;99.90;;;14.87;100.00;98439.09;4982719;28;20448;-77
2022/04/14 06:56:42;;;;;;;8.87;5.40;;;14.10;99.90;;;14.90;100.00;98441.31;4983529;28;20447;-76
2022/04/14 06:59:12;;;;;;;9.77;5.00;;;14.20;99.90;;;14.90;100.00;98441.31;4982170;28;20499;-77
2022/04/14 07:01:43;;;;;;;8.77;5.43;;;14.10;99.90;;;14.89;100.00;98435.25;4977503;28;21022;-77
2022/04/14 07:04:13;;;;;;;12.00;6.50;;;14.10;99.90;;;14.89;100.00;98440.50;4980429;28;20448;-77
2022/04/14 07:06:42;;;;;;;11.93;6.40;;;14.10;99.90;;;14.89;100.00;98439.72;4981418;28;20797;-76
2022/04/14 07:09:13;;;;;;;16.77;6.30;;;14.10;99.90;;;14.92;100.00;98441.94;4983090;28;20456;-76
2022/04/14 07:11:44;;;;;;;13.47;7.00;;;14.10;99.90;;;14.96;100.00;98441.31;4981164;28;20496;-77
2022/04/14 07:14:14;;;;;;;12.07;7.50;;;14.10;99.90;;;14.97;100.00;98450.84;4982310;28;20453;-76
2022/04/14 07:16:45;;;;;;;14.63;7.27;;;14.20;99.90;;;14.98;100.00;98455.09;4982602;28;20524;-76
2022/04/14 07:19:15;;;;;;;18.93;6.97;;;14.20;99.90;;;15.05;100.00;98455.09;4983299;28;20994;-76
2022/04/14 07:21:45;;;;;;;17.90;6.60;;;14.30;99.90;;;15.09;100.00;98451.84;4981971;28;20480;-76
2022/04/14 07:24:14;;;;;;;12.90;7.00;;;14.20;99.90;;;15.13;100.00;98458.31;4979775;28;20463;-76
2022/04/14 07:26:46;;;;;;;16.30;6.43;;;14.30;99.90;;;15.17;100.00;98463.97;4982373;28;20444;-76
2022/04/14 07:29:16;;;;;;;12.10;6.27;;;14.40;99.90;;;15.22;100.00;98460.72;4980417;28;20464;-76
2022/04/14 07:31:46;;;;;;;15.40;7.10;;;14.50;99.90;;;15.25;100.00;98463.75;4980927;28;20579;-77
2022/04/14 07:34:17;;;;;;;13.07;6.83;;;14.50;99.90;;;15.23;100.00;98463.19;4982015;28;20452;-76
2022/04/14 07:36:47;;;;;;;14.90;8.10;;;14.40;99.90;;;15.27;100.00;98468.84;4982669;28;20535;-77
2022/04/14 07:39:18;;;;;;;12.00;7.50;;;14.50;99.90;;;15.25;100.00;98476.13;4980045;28;20503;-77
2022/04/14 07:41:50;;;;;;;14.20;7.97;;;14.40;99.90;;;15.30;100.00;98469.25;4976436;28;20452;-76
2022/04/14 07:44:20;;;;;;;13.67;8.50;;;14.50;99.90;;;15.34;100.00;98465.16;4981189;28;20503;-76
2022/04/14 07:46:49;;;;;;;15.73;7.50;;;14.50;99.90;;;15.40;100.00;98471.44;4983540;28;20496;-76
2022/04/14 07:49:19;;;;;;;13.83;7.97;;;14.50;99.90;;;15.40;100.00;98469.63;4981818;28;20455;-76
2022/04/14 07:51:49;;;;;;;16.97;8.77;;;14.50;99.90;;;15.42;100.00;98478.09;4981670;28;20472;-76
2022/04/14 07:54:19;;;;;;;13.03;8.07;;;14.60;99.90;;;15.49;100.00;98473.66;4983352;28;20493;-76
2022/04/14 07:56:50;;;;;;;17.53;8.30;;;14.70;99.90;;;15.53;100.00;98472.25;4984328;28;20528;-76
2022/04/14 07:59:19;;;;;;;15.53;8.40;;;14.80;99.90;;;15.58;100.00;98477.69;4983939;28;20554;-76
2022/04/14 08:01:49;;;;;;;14.90;8.17;;;14.80;99.90;;;15.67;100.00;98469.53;4981623;28;20492;-76
2022/04/14 08:04:17;;;;;;;11.90;7.30;;;14.90;99.90;;;15.76;100.00;98473.59;4981459;28;20492;-77
2022/04/14 08:06:49;;;;;;;13.20;8.27;;;15.10;99.90;;;15.82;100.00;98483.28;4985359;28;20463;-76
2022/04/14 08:09:38;;;;;;;16.60;7.90;;;15.10;99.90;;;15.90;100.00;98475.94;4986521;28;20544;-76
2022/04/14 08:12:12;;;;;;;14.63;8.13;;;15.20;99.90;;;15.98;100.00;98482.81;4985479;28;20455;-77
2022/04/14 08:14:42;;;;;;;11.93;7.47;;;15.30;99.90;;;15.96;100.00;98480.38;4985431;28;20474;-77
2022/04/14 08:17:11;;;;;;;13.50;7.20;;;15.20;99.90;;;16.06;100.00;98485.19;4984964;28;20444;-77
2022/04/14 08:19:41;;;;;;;13.10;7.73;;;15.30;99.90;;;16.10;100.00;98487.19;4985271;28;20530;-76
2022/04/14 08:22:11;;;;;;;11.37;7.37;;;15.30;99.90;;;16.16;100.00;98490.00;4985858;28;20452;-76
2022/04/14 08:24:41;;;;;;;12.83;7.87;;;15.40;99.90;;;16.15;100.00;98494.47;4984563;28;20456;-77
2022/04/14 08:27:12;;;;;;;14.10;6.90;;;15.40;99.90;;;16.13;100.00;98496.53;4986247;28;20522;-76
2022/04/14 08:29:43;;;;;;;13.43;6.73;;;15.40;99.90;;;16.19;100.00;98505.44;4984618;28;20541;-77
2022/04/14 08:32:14;;;;;;;17.30;8.47;;;15.40;99.90;;;16.17;100.00;98503.00;4985290;28;20456;-76
2022/04/14 08:34:45;;;;;;;14.70;7.23;;;15.50;99.90;;;16.12;100.00;98510.75;4985656;28;20492;-77
2022/04/14 08:37:15;;;;;;;12.73;7.73;;;15.30;99.90;;;16.16;100.00;98506.66;4984584;28;20486;-76
2022/04/14 08:39:46;;;;;;;17.07;6.77;;;15.30;99.90;;;16.10;100.00;98510.16;4986140;28;20578;-76
2022/04/14 08:42:30;;;;;;;20.63;8.23;;;15.20;99.90;;;16.15;100.00;98509.50;4987093;28;20458;-76
2022/04/14 08:45:05;;;;;;;15.23;7.13;;;15.30;99.90;;;16.18;100.00;98509.88;4985159;28;20452;-76
2022/04/14 08:47:37;;;;;;;17.30;8.50;;;15.30;99.90;;;16.22;100.00;98513.72;4985660;28;20455;-77
2022/04/14 08:50:12;;;;;;;11.70;7.10;;;15.40;99.90;;;16.18;100.00;98515.16;4985121;28;20449;-76
2022/04/14 08:52:43;;;;;;;13.50;7.70;;;15.40;99.90;;;16.23;100.00;98512.72;4984975;28;20465;-77
2022/04/14 08:55:15;;;;;;;12.20;6.67;;;15.40;99.90;;;16.30;100.00;98517.97;4984193;28;21064;-77
2022/04/14 08:57:45;;;;;;;12.93;8.80;;;15.60;99.90;;;16.30;100.00;98516.13;4984098;28;20801;-77
2022/04/14 09:00:18;;;;;;;12.33;8.00;;;15.50;99.90;;;16.32;100.00;98527.28;4986409;28;20495;-76
2022/04/14 09:02:49;;;;;;;13.87;8.17;;;15.60;99.90;;;16.37;100.00;98519.53;4984716;28;20537;-77
2022/04/14 09:05:19;;;;;;;11.17;7.50;;;15.60;99.90;;;16.34;100.00;98512.06;4981823;28;20456;-77
2022/04/14 09:07:49;;;;;;;12.20;7.43;;;15.70;99.90;;;16.28;100.00;98523.44;4979309;28;20500;-77
2022/04/14 09:10:19;;;;;;;14.63;7.43;;;15.60;99.90;;;16.36;100.00;98517.09;4978530;28;20463;-77
2022/04/14 09:12:52;;;;;;;15.37;9.00;;;15.60;99.90;;;16.37;100.00;98519.53;4980294;28;20943;-77
2022/04/14 09:15:21;;;;;;;13.43;8.53;;;15.70;99.90;;;16.41;100.00;98519.94;4978443;28;20488;-77
2022/04/14 09:17:56;;;;;;;11.67;7.47;;;15.70;99.90;;;16.47;100.00;98522.53;4978769;28;20451;-77
2022/04/14 09:20:34;;;;;;;14.80;8.00;;;15.70;99.90;;;16.51;100.00;98515.81;4978737;28;21252;-77
2022/04/14 09:23:20;;;;;;;18.80;8.03;;;15.80;99.90;;;16.54;100.00;98522.47;4980619;28;20453;-77
2022/04/14 09:25:52;;;;;;;16.07;7.57;;;15.80;99.90;;;16.59;100.00;98518.19;4980959;28;20539;-77
2022/04/14 09:28:23;;;;;;;12.20;7.03;;;15.90;99.90;;;16.65;100.00;98521.03;4980621;28;20490;-77
2022/04/14 09:31:04;;;;;;;11.17;6.87;;;15.90;99.90;;;16.66;99.24;98525.28;4981889;28;20520;-76
2022/04/14 09:33:35;;;;;;;12.00;6.43;;;15.90;99.90;;;16.70;100.00;98529.09;4981046;28;20511;-77
2022/04/14 09:36:13;;;;;;;10.70;5.80;;;16.00;99.90;;;16.74;97.78;98530.28;4980685;28;21273;-77
2022/04/14 09:38:58;;;;;;;9.17;5.07;;;16.10;99.90;;;16.69;97.14;98535.41;4980083;28;20455;-77
2022/04/14 09:41:31;;;;;;;14.97;4.73;;;16.00;99.90;;;16.60;95.68;98527.75;4981782;28;20530;-77
2022/04/14 09:44:06;;;;;;;7.60;4.90;;;16.00;99.90;;;16.60;96.91;98534.84;4981088;28;20445;-77
2022/04/14 09:46:36;;;;;;;10.03;4.97;;;16.00;99.90;;;16.62;96.33;98524.09;4981667;28;20495;-77
2022/04/14 09:49:10;;;;;;;9.57;5.43;;;16.00;99.90;;;16.62;95.54;98524.09;4983946;28;20989;-77
2022/04/14 09:51:41;;;;;;;9.73;5.07;;;16.00;99.90;;;16.53;95.42;98524.31;4980498;28;20460;-77
2022/04/14 09:54:16;;;;;;;7.83;4.93;;;15.80;99.90;;;16.65;96.14;98526.31;4983161;28;20452;-77
2022/04/14 09:56:51;;;;;;;10.03;5.20;;;15.90;99.90;;;16.77;95.72;98528.03;4984102;28;20447;-77
2022/04/14 09:59:24;;;;;;;8.20;5.23;;;16.10;99.90;;;16.85;95.36;98519.03;4983905;28;20482;-77
2022/04/14 10:02:12;;;;;;;8.37;4.97;;;16.10;99.90;;;16.88;94.36;98522.06;4984903;28;20459;-77
2022/04/14 10:04:44;;;;;;;8.07;5.00;;;16.20;99.90;;;17.00;94.27;98519.53;4984089;28;20818;-76
2022/04/14 10:07:15;;;;;;;20.60;5.50;;;16.20;99.90;;;17.11;93.50;98518.84;4982798;28;20487;-77
2022/04/14 10:09:48;;;;;;;8.20;4.80;;;16.40;99.90;;;17.14;90.88;98528.16;4984145;28;20846;-77
2022/04/14 10:12:31;;;;;;;9.33;4.50;;;16.40;99.90;;;17.11;89.74;98524.13;4982403;28;20463;-77
2022/04/14 10:15:09;;;;;;;9.57;5.17;;;16.40;99.90;;;17.11;90.77;98532.06;4983798;28;20452;-77
2022/04/14 10:17:41;;;;;;;8.80;4.53;;;16.40;99.90;;;17.23;90.92;98519.72;4983073;28;20444;-77
2022/04/14 10:20:14;;;;;;;7.90;4.20;;;16.50;99.90;;;17.32;91.15;98528.97;4983503;28;20488;-77